27 de junho de 2022

Hora Código Clima Temp. Visibilidade Tecto Vento METAR/SPECI
4:30 da tarde
I
59 °F 6¼ mi+ 600 ft 300° 300° 10 kt METAR LFCR 271430Z AUTO 30010KT 9999 -RA BKN006/// BKN045/// BKN054/// //////TCU 15/14 Q1021 TEMPO SCT025TCU
4:00 da tarde
I
59 °F 6¼ mi+ 500 ft 310° 310° 7 kt METAR LFCR 271400Z AUTO 31007KT 9999 -RA BKN005/// OVC009/// //////TCU 15/14 Q1021 TEMPO SCT025TCU
3:30 da tarde
I
57 °F 6¼ mi+ 600 ft 290° 290° 7 kt METAR LFCR 271330Z AUTO 29007KT 9999 -RA BKN006/// BKN034/// OVC084/// ///CB 14/14 Q1022 TEMPO SCT025TCU
3:00 da tarde
I
57 °F 6¼ mi+ 500 ft 300° 300° 7 kt METAR LFCR 271300Z AUTO 30007KT 9999 -DZ OVC005/// ///TCU 14/14 Q1021 TEMPO 4000 RA BKN005 FEW050CB
2:30 da tarde
L
57 °F 6¼ mi+ 400 ft 300° 300° 10 kt METAR LFCR 271230Z AUTO 30010KT 9999 -RA OVC004 14/14 Q1021 TEMPO 4000 RA SCT025TCU
2:00 da tarde
L
57 °F 6¼ mi+ 400 ft 330° 330° 7 kt METAR LFCR 271200Z AUTO 33007KT 300V360 9999 RA BKN004/// OVC008/// ///TCU 14/14 Q1021 TEMPO 4000 RA BKN005 FEW050CB
1:30 da tarde
I
57 °F 6¼ mi+ 600 ft 300° 300° 6 kt METAR LFCR 271130Z AUTO 30006KT 9999 RA OVC006/// //////CB 14/14 Q1021 TEMPO NSW SCT025TCU
1:00 da tarde
I
57 °F 6¼ mi+ 700 ft 280° 280° 6 kt METAR LFCR 271100Z AUTO 28006KT 9999 -RA BKN007/// BKN012/// OVC019/// ///CB 14/14 Q1021 TEMPO 4000 RA SCT025TCU
12:30 da tarde
L
57 °F 5⅝ mi 300 ft 290° 290° 6 kt METAR LFCR 271030Z AUTO 29006KT 9000 RA BKN003/// BKN008/// OVC013/// //////CB 14/14 Q1021 BECMG NSW SCT025
12:00 da tarde
I
57 °F 6¼ mi+ 500 ft 250° 250° 6 kt METAR LFCR 271000Z AUTO 25006KT 9999 RA OVC005/// ///CB 14/14 Q1021 BECMG NSW BKN011
11:30 da manhã
I
57 °F 6¼ mi+ 600 ft 270° 270° 10 kt METAR LFCR 270930Z AUTO 27010KT 9999 BKN006/// BKN010/// OVC014/// ///CB 14/14 Q1020 BECMG BKN011
11:00 da manhã
I
59 °F 6¼ mi+ 500 ft 270° 270° 9 kt METAR LFCR 270900Z AUTO 27009KT 9999 BKN005/// BKN010/// ///TCU 15/14 Q1020 TEMPO 3000 RA OVC003 FEW060CB
10:30 da manhã
I
59 °F 6¼ mi+ 500 ft 290° 290° 8 kt METAR LFCR 270830Z AUTO 29008KT 9999 BKN005 OVC010 15/14 Q1019 TEMPO 3000 RA OVC003 FEW060CB
10:00 da manhã
L
57 °F 6¼ mi+ 300 ft 310° 310° 9 kt METAR LFCR 270800Z AUTO 31009KT 9999 OVC003 14/14 Q1019 TEMPO 3000 RA OVC003 FEW060CB
9:30 da manhã
L
57 °F 6¼ mi+ 400 ft 300° 300° 8 kt METAR LFCR 270730Z AUTO 30008KT 9999 OVC004 14/14 Q1019 TEMPO 3000 RA OVC003 FEW060CB
9:00 da manhã
L
57 °F 6¼ mi+ 400 ft 300° 300° 5 kt METAR LFCR 270700Z AUTO 30005KT 270V330 9999 OVC004 14/14 Q1018 TEMPO 3000 RA OVC003 FEW060CB
8:30 da manhã
L
57 °F 6¼ mi+ 300 ft 280° 280° 7 kt METAR LFCR 270630Z AUTO 28007KT 9999 -RA OVC003 14/14 Q1019 TEMPO 3000 RA OVC003 FEW060CB
8:00 da manhã
L
57 °F 6¼ mi+ 300 ft Var Var 2 kt METAR LFCR 270600Z AUTO VRB02KT 9999 -RA BKN003/// OVC007/// ///TCU 14/14 Q1018 TEMPO 3000 RA OVC003 FEW060CB
7:30 da manhã
L
57 °F 6¼ mi+ 300 ft 290° 290° 4 kt METAR LFCR 270530Z AUTO 29004KT 9999 OVC003/// //////TCU 14/14 Q1019 TEMPO 0800 FG OVC002 FEW060CB
7:00 da manhã
L
57 °F 6¼ mi+ 300 ft 320° 320° 4 kt METAR LFCR 270500Z AUTO 32004KT 290V360 9999 OVC003 14/14 Q1018 TEMPO 0800 FG OVC002 FEW060CB
6:30 da manhã
L
57 °F 6¼ mi+ 300 ft 320° 320° 4 kt METAR LFCR 270430Z AUTO 32004KT 9999 BKN003 OVC072 14/14 Q1018 TEMPO 0800 FG OVC002 FEW060CB
6:00 da manhã
V
57 °F 6¼ mi+ 7.000 ft 330° 330° 5 kt METAR LFCR 270400Z AUTO 33005KT 9999 -RA SCT005 SCT060 OVC070 14/13 Q1017 TEMPO 0800 FG OVC002 FEW060CB
5:30 da manhã
L
57 °F 2¾ mi 400 ft 290° 290° 12 kt METAR LFCR 270330Z AUTO 29012KT 4400 -RA BR OVC004/// //////CB 14/14 Q1018 TEMPO 0800 FG OVC001
5:00 da manhã
L
57 °F 6¼ mi+ 400 ft 280° 280° 9 kt METAR LFCR 270300Z AUTO 28009KT 9999 OVC004/// //////TCU 14/14 Q1017 TEMPO 0800 FG OVC002 FEW060CB
4:30 da manhã
I
57 °F 6¼ mi+ 500 ft 300° 300° 9 kt METAR LFCR 270230Z AUTO 30009KT 9999 -RA BKN005/// OVC035/// ///TCU 14/13 Q1017 TEMPO 0800 FG OVC002 FEW060CB
4:00 da manhã
I
57 °F 3¾ mi 500 ft 290° 290° 10 kt METAR LFCR 270200Z AUTO 29010KT 6000 +RA BKN005/// OVC013/// //////CB 14/14 Q1017 TEMPO 0800 FG OVC001
3:30 da manhã
L
57 °F 4⅜ mi 400 ft 290° 290° 10 kt METAR LFCR 270130Z AUTO 29010KT 7000 RA VCTS BKN004/// OVC009/// //////CB 14/14 Q1016 TEMPO 0800 FG OVC001
3:00 da manhã
L
57 °F 2¾ mi 400 ft 280° 280° 11 kt METAR LFCR 270100Z AUTO 28011KT 4400 RA BR OVC004/// ///CB 14/14 Q1016 TEMPO 0800 FG OVC001
2:30 da manhã
L
57 °F 2⅞ mi 300 ft 270° 270° 9 kt METAR LFCR 270030Z AUTO 27009KT 4600 -RA BR OVC003/// ///CB 14/14 Q1016 TEMPO 0800 FG OVC001
2:00 da manhã
L
57 °F 3⅛ mi 300 ft 280° 280° 10 kt METAR LFCR 270000Z AUTO 28010KT 5000 -RA BR OVC003/// ///CB 14/14 Q1015 TEMPO 0800 FG OVC001
1:30 da manhã
L
57 °F 2⅞ mi - 280° 280° 9 kt METAR LFCR 262330Z AUTO 28009KT 4700 BR VV/// 14/14 Q1016 TEMPO 0800 FG OVC002 FEW060CB
1:00 da manhã
L
59 °F 6¼ mi+ 300 ft 280° 280° 7 kt METAR LFCR 262300Z AUTO 28007KT 9999 OVC003 15/14 Q1016 BECMG 3000 -RA
12:30 da manhã
L
59 °F 6¼ mi+ 300 ft 280° 280° 6 kt METAR LFCR 262230Z AUTO 28006KT 9999 OVC003 15/14 Q1016 BECMG 3000 -RA
12:00 da manhã
L
59 °F 6¼ mi+ 300 ft 280° 280° 9 kt METAR LFCR 262200Z AUTO 28009KT 9999 OVC003 15/15 Q1016 BECMG 3000 -RA

26 de junho de 2022

Hora Código Clima Temp. Visibilidade Tecto Vento METAR/SPECI
11:30 da tarde
L
61 °F 6¼ mi+ 300 ft 290° 290° 6 kt METAR LFCR 262130Z AUTO 29006KT 9999 OVC003 16/15 Q1016 BECMG 3000 -RA
11:00 da tarde
L
61 °F 6¼ mi+ 300 ft 260° 260° 3 kt METAR LFCR 262100Z AUTO 26003KT 9999 OVC003 16/15 Q1015 BECMG 3000 -RA
10:30 da tarde
L
61 °F 6¼ mi+ 300 ft Var Var 2 kt METAR LFCR 262030Z AUTO VRB02KT 9999 OVC003 16/15 Q1015 BECMG 3000 -RA
10:00 da tarde
L
61 °F 6¼ mi+ 200 ft 260° 260° 5 kt METAR LFCR 262000Z AUTO 26005KT 9999 OVC002 16/15 Q1015 TEMPO 3000 -RA BKN020CB
9:30 da tarde
L
59 °F 6¼ mi+ 300 ft 290° 290° 6 kt METAR LFCR 261930Z AUTO 29006KT 9999 OVC003 15/15 Q1014 TEMPO 3000 -RA BKN020CB
9:00 da tarde
L
59 °F 5 mi - 290° 290° 8 kt METAR LFCR 261900Z AUTO 29008KT 8000 VV/// 15/15 Q1014 TEMPO 1000 TSRA BKN020CB
8:30 da tarde
L
61 °F ¼ mi - 300° 300° 8 kt METAR LFCR 261830Z AUTO 30008KT 1600 0450 R31/0600D BCFG VV/// 16/16 Q1014 TEMPO 1000 TSRA BKN020CB
8:00 da tarde
L
61 °F 6¼ mi+ 300 ft 300° 300° 9 kt METAR LFCR 261800Z AUTO 30009KT 9999 OVC003 16/16 Q1014 TEMPO 1000 TSRA BKN020CB
7:30 da tarde
L
61 °F 6¼ mi+ 300 ft 290° 290° 9 kt METAR LFCR 261730Z AUTO 29009KT 9999 OVC003 16/16 Q1014 TEMPO 3000 RA BKN005 FEW040CB
7:00 da tarde
L
61 °F 6¼ mi+ 300 ft 300° 300° 10 kt METAR LFCR 261700Z AUTO 30010KT 9999 OVC003 16/16 Q1013 TEMPO 3000 RA BKN005 FEW040CB
6:30 da tarde
L
63 °F 6¼ mi+ 400 ft 290° 290° 10 kt METAR LFCR 261630Z AUTO 29010KT 9999 OVC004 17/16 Q1013 TEMPO 3000 RA BKN005 FEW040CB
6:00 da tarde
I
63 °F 6¼ mi+ 600 ft 300° 300° 11 kt METAR LFCR 261600Z AUTO 30011KT 9999 OVC006 17/16 Q1013 TEMPO 3000 RA BKN005 FEW040CB
5:30 da tarde
I
64 °F 6¼ mi+ 500 ft 320° 320° 10 kt METAR LFCR 261530Z AUTO 32010KT 9999 BKN005 OVC009 18/17 Q1013 TEMPO 3000 RA BKN008 FEW040CB
5:00 da tarde
I
64 °F 6¼ mi+ 800 ft 330° 330° 8 kt METAR LFCR 261500Z AUTO 33008KT 9999 BKN008 OVC014 18/17 Q1013 TEMPO 3000 RA BKN008 FEW040CB
4:30 da tarde
M
66 °F 6¼ mi+ 1.100 ft 320° 320° 8 kt METAR LFCR 261430Z AUTO 32008KT 300V360 9999 BKN011 OVC018 19/17 Q1013 TEMPO 3000 RA BKN008 FEW040CB
4:00 da tarde
M
68 °F 6¼ mi+ 1.200 ft 290° 290° 6 kt METAR LFCR 261400Z AUTO 29006KT 260V320 9999 BKN012 OVC018 20/18 Q1013 TEMPO 3000 RA BKN008 FEW040CB
3:30 da tarde
M
66 °F 6¼ mi+ 1.300 ft 290° 290° 3 kt METAR LFCR 261330Z AUTO 29003KT 220V360 9999 OVC013 19/17 Q1013 TEMPO 3000 RA BKN008 FEW040CB
3:00 da tarde
I
66 °F 6¼ mi+ 900 ft 310° 310° 4 kt METAR LFCR 261300Z AUTO 31004KT 260V020 9999 OVC009 19/17 Q1013 TEMPO 3000 RA BKN008 FEW040CB
2:30 da tarde
I
66 °F 6¼ mi+ 800 ft 320° 320° 5 kt METAR LFCR 261230Z AUTO 32005KT 260V350 9999 BKN008 OVC012 19/17 Q1013 TEMPO 3000 RA BKN012 FEW040CB
2:00 da tarde
I
64 °F 6¼ mi+ 800 ft 310° 310° 5 kt METAR LFCR 261200Z AUTO 31005KT 280V340 9999 OVC008 18/17 Q1013 TEMPO 3000 RA BKN012 FEW040CB
1:30 da tarde
M
64 °F 6¼ mi+ 1.200 ft 300° 300° 5 kt METAR LFCR 261130Z AUTO 30005KT 9999 -RA FEW005/// BKN012/// BKN020/// //////TCU 18/17 Q1013 TEMPO 3000 RA BKN012 FEW040CB
1:00 da tarde
L
61 °F 6¼ mi+ 400 ft 310° 310° 4 kt METAR LFCR 261100Z AUTO 31004KT 9999 -RA BKN004/// OVC008/// ///TCU 16/16 Q1014 BECMG SCT015 BKN030
12:30 da tarde
L
61 °F 6¼ mi+ 400 ft 320° 320° 5 kt METAR LFCR 261030Z AUTO 32005KT 9999 -RA OVC004 16/16 Q1014 BECMG SCT015 BKN030
12:00 da tarde
L
61 °F 6¼ mi+ 400 ft 320° 320° 4 kt METAR LFCR 261000Z AUTO 32004KT 9999 BKN004 OVC008 16/16 Q1014 BECMG SCT015 BKN030
11:30 da manhã
I
63 °F 6¼ mi+ 700 ft Var Var 3 kt METAR LFCR 260930Z AUTO VRB03KT 9999 OVC007 17/16 Q1014 BECMG SCT015 BKN030
11:00 da manhã
I
63 °F 6¼ mi+ 700 ft 350° 350° 3 kt METAR LFCR 260900Z AUTO 35003KT 300V020 9999 OVC007 17/16 Q1014 BECMG SCT015 BKN030
10:30 da manhã
I
63 °F 6¼ mi+ 600 ft Var Var 2 kt METAR LFCR 260830Z AUTO VRB02KT 9999 BKN006 OVC014 17/15 Q1014 BECMG SCT015 BKN030
10:00 da manhã
I
61 °F 6¼ mi+ 600 ft Var Var 2 kt METAR LFCR 260800Z AUTO VRB02KT 9999 OVC006 16/16 Q1014 TEMPO BKN004
9:30 da manhã
I
61 °F 6¼ mi+ 500 ft Var Var 1 kt METAR LFCR 260730Z AUTO VRB01KT 9999 OVC005 16/15 Q1014 NOSIG
9:00 da manhã
I
59 °F 6¼ mi+ 900 ft Var Var 2 kt METAR LFCR 260700Z AUTO VRB02KT 9999 BKN009 OVC022 15/14 Q1014 TEMPO BKN004
8:30 da manhã
M
59 °F 6¼ mi+ 1.500 ft Var Var 2 kt METAR LFCR 260630Z AUTO VRB02KT 9999 SCT004 SCT009 BKN015 15/14 Q1014 TEMPO BKN004
8:00 da manhã
L
59 °F 6¼ mi+ 400 ft 330° 330° 3 kt METAR LFCR 260600Z AUTO 33003KT 290V360 9999 BKN004 OVC010 15/14 Q1014 NOSIG
7:30 da manhã
M
57 °F 5 mi 1.300 ft 310° 310° 6 kt METAR LFCR 260530Z AUTO 31006KT 8000 -DZ SCT004 OVC013 14/14 Q1014 TEMPO 2000 BR OVC002
7:00 da manhã
M
59 °F 6¼ mi+ 1.500 ft 310° 310° 3 kt METAR LFCR 260500Z AUTO 31003KT 9999 SCT004 OVC015 15/14 Q1014 TEMPO 2000 BR OVC002
6:30 da manhã
L
59 °F 6¼ mi+ 400 ft 290° 290° 4 kt METAR LFCR 260430Z AUTO 29004KT 9999 BKN004 OVC017 15/14 Q1014 TEMPO 2000 BR
6:00 da manhã
L
59 °F 6¼ mi+ 300 ft 300° 300° 5 kt METAR LFCR 260400Z AUTO 30005KT 9999 BKN003 OVC019 15/15 Q1014 TEMPO 2000 BR
5:30 da manhã
L
59 °F 6¼ mi+ 300 ft 330° 330° 3 kt METAR LFCR 260330Z AUTO 33003KT 9999 BKN003 OVC018 15/15 Q1014 TEMPO 2000 BR
5:00 da manhã
L
59 °F 6¼ mi+ 200 ft Var Var 2 kt METAR LFCR 260300Z AUTO VRB02KT 9999 OVC002 15/15 Q1014 TEMPO 2000 BR OVC002 FEW050CB
4:30 da manhã
L
59 °F 6¼ mi+ 300 ft 320° 320° 5 kt METAR LFCR 260230Z AUTO 32005KT 280V350 9999 -DZ BKN003 OVC015 15/15 Q1014 TEMPO 2000 BR OVC002 FEW050CB
4:00 da manhã
M
59 °F 6¼ mi+ 1.200 ft 290° 290° 6 kt METAR LFCR 260200Z AUTO 29006KT 9999 -RADZ SCT003/// OVC012/// //////CB 15/15 Q1014 TEMPO 3000 RA OVC002 FEW050CB
3:30 da manhã
I
59 °F 6¼ mi+ 900 ft 310° 310° 5 kt METAR LFCR 260130Z AUTO 31005KT 9999 SCT004 OVC009 15/15 Q1015 TEMPO 3000 RA OVC002 FEW050CB
3:00 da manhã
L
59 °F 6¼ mi+ 300 ft 300° 300° 7 kt METAR LFCR 260100Z AUTO 30007KT 9999 OVC003 15/15 Q1014 TEMPO 3000 RA OVC002 FEW050CB
2:30 da manhã
L
59 °F 5⅝ mi 200 ft 290° 290° 5 kt METAR LFCR 260030Z AUTO 29005KT 9000 OVC002 15/15 Q1014 TEMPO 3000 RA OVC004 FEW050CB
2:00 da manhã
L
59 °F 4⅜ mi 200 ft 330° 330° 7 kt METAR LFCR 260000Z AUTO 33007KT 7000 -RA OVC002/// ///CB 15/15 Q1014 TEMPO 3000 RA
1:30 da manhã
I
59 °F 3¾ mi 500 ft 310° 310° 4 kt METAR LFCR 252330Z AUTO 31004KT 280V360 6000 RA BKN005/// BKN014/// OVC027/// ///CB 15/15 Q1015 TEMPO 3000 RA
1:00 da manhã
M
59 °F 5 mi 1.300 ft 310° 310° 6 kt METAR LFCR 252300Z AUTO 31006KT 280V340 8000 -RA FEW005/// BKN013/// BKN024/// ///CB 15/15 Q1015 TEMPO VRB20G30KT 3000 RA OVC004 FEW050CB
12:30 da manhã
M
59 °F 6¼ mi+ 2.600 ft 290° 290° 6 kt METAR LFCR 252230Z AUTO 29006KT 9999 -RA SCT009/// BKN026/// BKN054/// //////CB 15/15 Q1015 TEMPO VRB20G30KT 3000 RA OVC004 FEW050CB
12:00 da manhã
M
61 °F 6¼ mi+ 1.400 ft 280° 280° 5 kt METAR LFCR 252200Z AUTO 28005KT 9999 -RA FEW010/// BKN014/// BKN025/// //////CB 16/15 Q1015 TEMPO 3000 RA OVC004 FEW050CB

25 de junho de 2022

Hora Código Clima Temp. Visibilidade Tecto Vento METAR/SPECI
11:30 da tarde
M
61 °F 6¼ mi+ 2.500 ft 290° 290° 8 kt METAR LFCR 252130Z AUTO 29008KT 9999 FEW012/// OVC025/// //////TCU 16/15 Q1015 TEMPO 3000 RA OVC004 FEW050CB
11:00 da tarde
M
61 °F 6¼ mi+ 2.300 ft 300° 300° 4 kt METAR LFCR 252100Z AUTO 30004KT 9999 -RA BKN023/// BKN028/// OVC084/// ///CB 16/15 Q1014 TEMPO 3000 RA OVC004 FEW050CB
10:30 da tarde
M
63 °F 6¼ mi+ 2.400 ft 300° 300° 6 kt METAR LFCR 252030Z AUTO 30006KT 9999 BKN024/// BKN110/// OVC130/// //////CB 17/15 Q1015 TEMPO 3000 RA OVC004 FEW050CB
10:00 da tarde
M
63 °F 6¼ mi+ 2.300 ft 310° 310° 7 kt METAR LFCR 252000Z AUTO 31007KT 9999 OVC023/// //////CB 17/15 Q1014 TEMPO 3000 RA OVC004 FEW050CB
9:30 da tarde
M
63 °F 6¼ mi+ 2.900 ft 310° 310° 5 kt METAR LFCR 251930Z AUTO 31005KT 9999 -RA BKN029/// BKN062/// BKN094/// //////CB 17/16 Q1014 TEMPO 3000 RA OVC004 FEW050CB
9:00 da tarde
M
66 °F 6¼ mi+ 2.400 ft 340° 340° 5 kt METAR LFCR 251900Z AUTO 34005KT 310V010 9999 BKN024/// BKN041/// BKN049/// ///CB 19/15 Q1014 TEMPO VRB20G30KT 3000 RA OVC004 FEW050CB
8:30 da tarde
M
66 °F 6¼ mi+ 2.300 ft 330° 330° 4 kt METAR LFCR 251830Z AUTO 33004KT 290V010 9999 BKN023/// OVC029/// ///CB 19/15 Q1014 TEMPO VRB20G30KT 3000 RA OVC004 FEW050CB
8:00 da tarde
V
68 °F 6¼ mi+ 3.000 ft 310° 310° 8 kt METAR LFCR 251800Z AUTO 31008KT 9999 SCT023/// BKN030/// BKN046/// ///CB 20/15 Q1013 TEMPO VRB20G30KT 4000 TSRA
7:30 da tarde
V
68 °F 6¼ mi+ 3.900 ft 330° 330° 7 kt METAR LFCR 251730Z AUTO 33007KT 300V360 9999 FEW025/// BKN039/// BKN046/// //////CB 20/16 Q1013 TEMPO 32020G30KT 4000 TSRA
7:00 da tarde
V
70 °F 6¼ mi+ 4.800 ft 320° 320° 9 kt METAR LFCR 251700Z AUTO 32009KT 9999 SCT038/// BKN048/// ///TCU 21/16 Q1013 TEMPO 32020G30KT 4000 TSRA BECMG FEW060CB BKN120
6:30 da tarde
V
72 °F 6¼ mi+ 22.000 ft 330° 330° 10 kt METAR LFCR 251630Z AUTO 33010KT 9999 FEW042/// BKN220/// ///CB 22/16 Q1012 TEMPO 32020G30KT 4000 TSRA
6:00 da tarde
M
70 °F 4⅜ mi 15.000 ft 320° 320° 11 kt METAR LFCR 251600Z AUTO 32011KT 7000 FEW024/// OVC150/// ///CB 21/16 Q1012 TEMPO VRB25G40KT 2000 TSRAGR
5:30 da tarde
M
72 °F 4⅜ mi - 310° 310° 12 kt METAR LFCR 251530Z AUTO 31012KT 7000 FEW019/// SCT064/// ///CB 22/18 Q1012 TEMPO VRB25G40KT 2000 TSRAGR
5:00 da tarde
M
70 °F 4⅜ mi 7.000 ft 330° 330° 8 kt METAR LFCR 251500Z AUTO 33008KT 7000 VCTS FEW016/// SCT052/// BKN070/// ///CB 21/18 Q1013 TEMPO VRB25G40KT 2000 TSRAGR
Dados mais antigos

Baixe nosso aplicativo

Fácil acesso a todas as condições meteorológicas da aviação no seu celular e no seu tablet.
Com muitas características não disponíveis no site, como suporte offline e uma lista pessoal de aeroportos.

Nós e terceiros acompanhamos seu comportamento na internet em nosso site com cookies. Se você continuar, nós assumimos que você concorda com nossa política de cookies. Saiba mais